Time;durP1;ratioP1;P1;durP2;ratioP2;P2;SDS_P1;SDS_P2;PMS_P1;PMS_P2;Temp;Humidity;BMP_temperature;BMP_pressure;BME280_temperature;BME280_humidity;BME280_pressure;Samples;Min_cycle;Max_cycle;Signal;HPM_P1;HPM_P2
2022/09/06 00:00:36;;;;;;;3.67;2.40;;;21.10;99.90;;;;;;2567936;23;20015;-71
2022/09/06 00:01:37;;;;;;;5.28;2.50;;;21.10;99.90;;;;;;2568137;23;20388;-71
2022/09/06 00:02:38;;;;;;;3.60;2.60;;;21.10;99.90;;;;;;2567530;23;20029;-71
2022/09/06 00:03:39;;;;;;;5.05;2.88;;;21.10;99.90;;;;;;2554499;23;20093;-71
2022/09/06 00:04:40;;;;;;;4.68;2.90;;;21.10;99.90;;;;;;2554483;23;20059;-71
2022/09/06 00:05:42;;;;;;;5.50;2.83;;;21.10;99.90;;;;;;2567385;23;20004;-71
2022/09/06 00:06:43;;;;;;;3.00;2.70;;;21.10;99.90;;;;;;2568204;23;20007;-71
2022/09/06 00:07:43;;;;;;;3.75;3.08;;;21.10;99.90;;;;;;2567589;23;20007;-71
2022/09/06 00:08:45;;;;;;;4.47;2.90;;;21.10;99.90;;;;;;2567961;23;19996;-71
2022/09/06 00:09:46;;;;;;;3.08;2.80;;;21.10;99.90;;;;;;2568282;23;20001;-71
2022/09/06 00:10:46;;;;;;;3.92;2.97;;;21.10;99.90;;;;;;2567653;23;20027;-71
2022/09/06 00:11:47;;;;;;;4.07;2.88;;;21.10;99.90;;;;;;2568132;23;20000;-71
2022/09/06 00:12:48;;;;;;;3.03;2.67;;;21.00;99.90;;;;;;2554611;23;20440;-71
2022/09/06 00:13:48;;;;;;;3.47;2.92;;;21.10;99.90;;;;;;2541925;23;20013;-71
2022/09/06 00:14:49;;;;;;;3.80;2.90;;;21.00;99.90;;;;;;2554799;23;20005;-71
2022/09/06 00:15:50;;;;;;;3.80;2.90;;;21.10;99.90;;;;;;2567895;23;20028;-71
2022/09/06 00:16:51;;;;;;;4.63;2.83;;;21.00;99.90;;;;;;2567398;23;20001;-71
2022/09/06 00:17:51;;;;;;;2.72;2.53;;;21.00;99.90;;;;;;2567941;23;20445;-71
2022/09/06 00:18:53;;;;;;;3.83;2.53;;;21.00;99.90;;;;;;2567527;23;20334;-71
2022/09/06 00:19:54;;;;;;;4.95;3.72;;;21.00;99.90;;;;;;2554369;23;20477;-71
2022/09/06 00:20:54;;;;;;;4.97;3.50;;;21.00;99.90;;;;;;2554938;23;20650;-71
2022/09/06 00:21:55;;;;;;;6.00;3.90;;;21.00;99.90;;;;;;2567368;23;20165;-71
2022/09/06 00:22:57;;;;;;;5.57;3.75;;;20.90;99.90;;;;;;2567599;23;20012;-71
2022/09/06 00:23:58;;;;;;;3.88;3.53;;;21.00;99.90;;;;;;2568019;23;20322;-71
2022/09/06 00:24:58;;;;;;;6.38;3.95;;;21.00;99.90;;;;;;2567960;23;20047;-71
2022/09/06 00:26:03;;;;;;;6.47;4.28;;;21.00;99.90;;;;;;2568059;23;20004;-71
2022/09/06 00:27:05;;;;;;;4.60;3.78;;;21.00;99.90;;;;;;2567524;23;19993;-71
2022/09/06 00:28:06;;;;;;;6.20;4.05;;;21.00;99.90;;;;;;2567741;23;20016;-71
2022/09/06 00:29:06;;;;;;;7.47;3.97;;;21.00;99.90;;;;;;2568160;23;19996;-71
2022/09/06 00:30:08;;;;;;;8.48;4.63;;;21.00;99.90;;;;;;2567577;23;20071;-71
2022/09/06 00:31:13;;;;;;;8.02;3.92;;;21.00;99.90;;;;;;2567872;23;20083;-71
2022/09/06 00:32:13;;;;;;;6.75;4.60;;;21.00;99.90;;;;;;2567753;23;19996;-71
2022/09/06 00:33:14;;;;;;;8.38;4.47;;;21.00;99.90;;;;;;2566724;23;20024;-71
2022/09/06 00:34:14;;;;;;;7.38;4.28;;;21.00;99.90;;;;;;2568144;23;20401;-71
2022/09/06 00:35:16;;;;;;;7.43;4.07;;;21.00;99.90;;;;;;2567866;23;20306;-71
2022/09/06 00:36:17;;;;;;;6.93;4.28;;;21.00;99.90;;;;;;2567611;23;20020;-71
2022/09/06 00:37:18;;;;;;;4.78;3.50;;;21.00;99.90;;;;;;2568059;23;20047;-71
2022/09/06 00:38:18;;;;;;;4.70;3.25;;;21.00;99.90;;;;;;2567621;23;20452;-71
2022/09/06 00:39:19;;;;;;;5.28;3.83;;;21.00;99.90;;;;;;2553973;23;20075;-71
2022/09/06 00:40:20;;;;;;;5.35;3.70;;;21.00;99.90;;;;;;2555141;23;20032;-71
2022/09/06 00:41:20;;;;;;;6.63;3.63;;;21.00;99.90;;;;;;2554081;23;20040;-71
2022/09/06 00:42:21;;;;;;;4.60;3.35;;;21.10;99.90;;;;;;2554650;23;20008;-71
2022/09/06 00:43:22;;;;;;;6.70;4.10;;;21.10;99.90;;;;;;2567242;23;20004;-71
2022/09/06 00:44:22;;;;;;;6.63;3.67;;;21.10;99.90;;;;;;2568050;23;20008;-71
2022/09/06 00:45:26;;;;;;;5.68;3.67;;;21.10;99.90;;;;;;2567740;23;20000;-71
2022/09/06 00:46:28;;;;;;;5.13;3.38;;;21.10;99.90;;;;;;2567464;23;20020;-71
2022/09/06 00:47:29;;;;;;;7.22;3.92;;;21.10;99.90;;;;;;2567459;23;20004;-71
2022/09/06 00:48:30;;;;;;;6.05;3.90;;;21.20;99.90;;;;;;2568094;23;20329;-71
2022/09/06 00:49:37;;;;;;;6.28;3.85;;;21.10;99.90;;;;;;2567676;23;20054;-71
2022/09/06 00:50:37;;;;;;;5.25;3.28;;;21.20;99.90;;;;;;2567260;23;20005;-71
2022/09/06 00:51:38;;;;;;;5.72;4.13;;;21.20;99.90;;;;;;2567836;23;19992;-71
2022/09/06 00:52:41;;;;;;;6.78;3.53;;;21.20;99.90;;;;;;2567351;23;20087;-71
2022/09/06 00:53:42;;;;;;;5.97;3.83;;;21.20;99.90;;;;;;2567400;23;20001;-71
2022/09/06 00:54:42;;;;;;;4.70;3.33;;;21.20;99.90;;;;;;2567486;23;20005;-71
2022/09/06 00:55:44;;;;;;;4.40;3.08;;;21.20;99.90;;;;;;2567198;23;20001;-71
2022/09/06 00:56:45;;;;;;;3.47;3.17;;;21.20;99.90;;;;;;2567935;23;20127;-71
2022/09/06 00:57:50;;;;;;;5.68;3.80;;;21.20;99.90;;;;;;2567657;23;20005;-71
2022/09/06 00:58:50;;;;;;;7.40;3.88;;;21.20;99.90;;;;;;2567637;23;20008;-71
2022/09/06 00:59:53;;;;;;;5.18;3.42;;;21.30;99.90;;;;;;2568004;23;20016;-71
2022/09/06 01:00:54;;;;;;;6.85;3.60;;;21.30;99.90;;;;;;2568280;23;20018;-72
2022/09/06 01:01:54;;;;;;;4.93;3.25;;;21.20;99.90;;;;;;2567833;23;20009;-72
2022/09/06 01:02:55;;;;;;;5.13;3.55;;;21.30;99.90;;;;;;2567482;23;20484;-72
2022/09/06 01:03:56;;;;;;;5.38;3.70;;;21.30;99.90;;;;;;2567135;23;20015;-72
2022/09/06 01:04:56;;;;;;;5.15;3.35;;;21.30;99.90;;;;;;2554138;23;20012;-72
2022/09/06 01:06:15;;;;;;;7.03;3.80;;;21.30;99.90;;;;;;2554225;23;20001;-72
2022/09/06 01:07:44;;;;;;;4.18;3.72;;;21.30;99.90;;;;;;2557698;23;20005;-72
2022/09/06 01:09:06;;;;;;;8.43;3.70;;;21.20;99.90;;;;;;2554497;23;20033;-72
2022/09/06 01:10:30;;;;;;;4.03;3.28;;;21.20;99.90;;;;;;2554503;23;20431;-73
2022/09/06 01:11:36;;;;;;;4.03;3.60;;;21.20;99.90;;;;;;2559506;23;20005;-72
2022/09/06 01:13:02;;;;;;;8.05;4.07;;;21.20;99.90;;;;;;2567127;23;19997;-72
2022/09/06 01:14:29;;;;;;;4.18;3.67;;;21.20;99.90;;;;;;2567738;23;20004;-72
2022/09/06 01:15:51;;;;;;;8.70;3.75;;;21.20;99.90;;;;;;2567517;23;20013;-72
2022/09/06 01:17:20;;;;;;;6.07;3.92;;;21.20;99.90;;;;;;2567230;23;20065;-72
2022/09/06 01:18:34;;;;;;;4.05;3.60;;;21.20;99.90;;;;;;2567501;23;20008;-72
2022/09/06 01:20:09;;;;;;;6.28;4.07;;;21.10;99.90;;;;;;2566577;23;20066;-72
2022/09/06 01:21:34;;;;;;;6.38;4.10;;;21.10;99.90;;;;;;2567668;23;20009;-72
2022/09/06 01:22:44;;;;;;;8.73;4.18;;;21.10;99.90;;;;;;2566852;23;20230;-72
2022/09/06 01:24:03;;;;;;;6.32;3.60;;;21.10;99.90;;;;;;2567117;23;20075;-72
2022/09/06 01:25:06;;;;;;;5.35;3.53;;;21.10;99.90;;;;;;2566672;23;20075;-72
2022/09/06 01:26:31;;;;;;;5.78;3.55;;;21.10;99.90;;;;;;2567149;23;20116;-72
2022/09/06 01:28:04;;;;;;;5.63;3.88;;;21.10;99.90;;;;;;2567617;23;20007;-72
2022/09/06 01:29:22;;;;;;;6.97;3.67;;;21.10;99.90;;;;;;2567552;23;20001;-72
2022/09/06 01:30:23;;;;;;;4.78;3.58;;;21.10;99.90;;;;;;2554554;23;20001;-72
2022/09/06 01:31:41;;;;;;;5.35;3.50;;;21.10;99.90;;;;;;2554205;23;20509;-72
2022/09/06 01:32:53;;;;;;;5.95;3.63;;;21.10;99.90;;;;;;2566630;23;20075;-72
2022/09/06 01:34:06;;;;;;;5.38;3.28;;;21.10;99.90;;;;;;2567275;23;20009;-72
2022/09/06 01:35:21;;;;;;;4.00;3.35;;;21.10;99.90;;;;;;2567826;23;20020;-72
2022/09/06 01:36:27;;;;;;;3.83;2.72;;;21.20;99.90;;;;;;2567201;23;20068;-72
2022/09/06 01:37:28;;;;;;;3.00;2.70;;;21.10;99.90;;;;;;2554011;23;20013;-72
2022/09/06 01:38:29;;;;;;;4.82;3.20;;;21.20;99.90;;;;;;2554466;23;20016;-72
2022/09/06 01:39:32;;;;;;;4.10;3.10;;;21.20;99.90;;;;;;2567582;23;20004;-72
2022/09/06 01:40:35;;;;;;;5.38;2.83;;;21.20;99.90;;;;;;2567721;23;20086;-72
2022/09/06 01:41:36;;;;;;;2.40;2.28;;;21.20;99.90;;;;;;2567405;23;20005;-72
2022/09/06 01:42:38;;;;;;;3.30;2.60;;;21.20;99.90;;;;;;2567098;23;20011;-72
2022/09/06 01:43:44;;;;;;;5.57;2.70;;;21.20;99.90;;;;;;2567024;23;20004;-72
2022/09/06 01:45:00;;;;;;;8.45;2.63;;;21.30;99.90;;;;;;2567182;23;20001;-72
2022/09/06 01:46:43;;;;;;;4.63;2.60;;;21.30;99.90;;;;;;2553881;23;20028;-72
2022/09/06 01:48:11;;;;;;;5.38;2.35;;;21.30;99.90;;;;;;2563214;23;20325;-72
2022/09/06 01:49:27;;;;;;;4.85;2.53;;;21.30;99.90;;;;;;2567558;23;20001;-72
2022/09/06 01:50:43;;;;;;;3.40;2.28;;;21.30;99.90;;;;;;2567521;23;20011;-72
2022/09/06 01:52:12;;;;;;;2.53;2.15;;;21.30;99.90;;;;;;2567424;23;19996;-72
2022/09/06 01:53:41;;;;;;;4.70;2.30;;;21.30;99.90;;;;;;2554506;23;20362;-72
2022/09/06 01:54:47;;;;;;;3.03;2.05;;;21.30;99.90;;;;;;2554332;23;20464;-72
2022/09/06 01:56:07;;;;;;;2.72;2.25;;;21.30;99.90;;;;;;2555031;23;19993;-72
2022/09/06 01:57:20;;;;;;;5.18;2.30;;;21.40;99.90;;;;;;2554978;23;20456;-72
2022/09/06 01:58:31;;;;;;;3.67;2.20;;;21.30;99.90;;;;;;2555215;23;20029;-72
2022/09/06 01:59:56;;;;;;;4.72;2.70;;;21.40;99.90;;;;;;2555335;23;20437;-72
2022/09/06 02:01:05;;;;;;;4.18;2.47;;;21.40;99.90;;;;;;2555093;23;20080;-72
2022/09/06 02:02:17;;;;;;;4.15;2.83;;;21.40;99.90;;;;;;2555299;23;20346;-72
2022/09/06 02:03:34;;;;;;;5.28;2.80;;;21.40;99.90;;;;;;2554876;23;20001;-72
2022/09/06 02:04:49;;;;;;;3.80;2.70;;;21.50;99.90;;;;;;2555260;23;20430;-72
2022/09/06 02:05:55;;;;;;;5.25;2.67;;;21.50;99.90;;;;;;2555470;23;20032;-72
2022/09/06 02:07:04;;;;;;;5.85;2.60;;;21.50;99.90;;;;;;2556095;23;20009;-72
2022/09/06 02:08:37;;;;;;;5.80;3.10;;;21.50;99.90;;;;;;2555944;23;20001;-72
2022/09/06 02:09:41;;;;;;;5.95;2.80;;;21.50;99.90;;;;;;2532122;23;20088;-72
2022/09/06 02:10:54;;;;;;;5.57;3.15;;;21.50;99.90;;;;;;2556123;23;20076;-72
2022/09/06 02:11:58;;;;;;;6.07;2.97;;;21.50;99.90;;;;;;2556178;23;20444;-72
2022/09/06 02:13:00;;;;;;;7.75;3.53;;;21.60;99.90;;;;;;2554967;23;20001;-72
2022/09/06 02:14:06;;;;;;;6.10;3.08;;;21.60;99.90;;;;;;2555770;23;20055;-72
2022/09/06 02:15:13;;;;;;;4.88;3.35;;;21.60;99.90;;;;;;2556043;23;20393;-72
2022/09/06 02:16:19;;;;;;;5.78;3.35;;;21.60;99.90;;;;;;2555279;23;20032;-72
2022/09/06 02:17:25;;;;;;;7.28;2.95;;;21.60;99.90;;;;;;2555517;23;20009;-72
2022/09/06 02:18:39;;;;;;;7.03;3.67;;;21.60;99.90;;;;;;2556008;23;20013;-72
2022/09/06 02:19:48;;;;;;;6.18;3.17;;;21.60;99.90;;;;;;2556377;23;20072;-72
2022/09/06 02:20:52;;;;;;;8.07;3.38;;;21.60;99.90;;;;;;2556301;23;20311;-73
2022/09/06 02:21:56;;;;;;;6.22;3.28;;;21.60;99.90;;;;;;2556477;23;20027;-72
2022/09/06 02:23:02;;;;;;;6.72;3.72;;;21.70;99.90;;;;;;2556239;23;20012;-72
2022/09/06 02:24:06;;;;;;;7.65;3.42;;;21.70;99.90;;;;;;2556553;23;20033;-72
2022/09/06 02:25:10;;;;;;;5.97;3.42;;;21.70;99.90;;;;;;2556224;23;20004;-72
2022/09/06 02:26:21;;;;;;;4.97;3.08;;;21.70;99.90;;;;;;2556227;23;20434;-72
2022/09/06 02:27:21;;;;;;;6.40;3.38;;;21.70;99.90;;;;;;2556284;23;20487;-72
2022/09/06 02:28:22;;;;;;;6.22;2.95;;;21.70;99.90;;;;;;2556544;23;20441;-72
2022/09/06 02:29:23;;;;;;;5.90;3.33;;;21.70;99.90;;;;;;2555949;23;19997;-72
2022/09/06 02:30:23;;;;;;;4.55;3.20;;;21.80;99.90;;;;;;2556123;23;20005;-72
2022/09/06 02:31:36;;;;;;;7.10;3.55;;;21.70;99.90;;;;;;2556663;23;20029;-72
2022/09/06 02:32:43;;;;;;;6.45;3.42;;;21.80;99.90;;;;;;2556004;23;20001;-72
2022/09/06 02:33:46;;;;;;;6.53;3.67;;;21.80;99.90;;;;;;2555961;23;20050;-72
2022/09/06 02:34:50;;;;;;;8.80;3.40;;;21.80;99.90;;;;;;2556450;23;20005;-72
2022/09/06 02:35:52;;;;;;;6.38;3.60;;;21.80;99.90;;;;;;2543147;23;20013;-72
2022/09/06 02:36:53;;;;;;;12.25;3.92;;;21.80;99.90;;;;;;2543482;23;20005;-72
2022/09/06 02:37:55;;;;;;;7.20;3.55;;;21.80;99.90;;;;;;2543314;23;20009;-72
2022/09/06 02:38:55;;;;;;;6.28;3.65;;;21.80;99.90;;;;;;2543345;23;20505;-72
2022/09/06 02:39:56;;;;;;;8.27;3.97;;;21.90;99.90;;;;;;2556131;23;20346;-72
2022/09/06 02:40:57;;;;;;;6.05;3.70;;;21.90;99.90;;;;;;2556661;23;20005;-72
2022/09/06 02:41:59;;;;;;;5.80;3.60;;;21.90;99.90;;;;;;2556573;23;20012;-72
2022/09/06 02:43:00;;;;;;;8.75;3.65;;;21.90;99.90;;;;;;2555802;23;20299;-72
2022/09/06 02:44:00;;;;;;;5.85;3.90;;;21.90;99.90;;;;;;2556621;23;20124;-72
2022/09/06 02:45:01;;;;;;;7.20;3.30;;;21.90;99.90;;;;;;2556136;23;20001;-72
2022/09/06 02:46:01;;;;;;;5.55;4.13;;;21.90;99.90;;;;;;2556226;23;20008;-72
2022/09/06 02:47:03;;;;;;;6.18;4.20;;;21.90;99.90;;;;;;2556190;23;20009;-72
2022/09/06 02:48:04;;;;;;;4.68;3.50;;;21.90;99.90;;;;;;2555922;23;20005;-72
2022/09/06 02:49:04;;;;;;;14.38;4.10;;;21.90;99.90;;;;;;2556415;23;20370;-72
2022/09/06 02:50:07;;;;;;;6.95;4.05;;;21.90;99.90;;;;;;2556249;23;20040;-72
2022/09/06 02:51:08;;;;;;;7.93;4.07;;;21.90;99.90;;;;;;2555997;23;20099;-72
2022/09/06 02:52:08;;;;;;;6.30;3.80;;;21.90;99.90;;;;;;2557190;23;20001;-72
2022/09/06 02:53:11;;;;;;;6.88;4.22;;;21.90;99.90;;;;;;2567606;23;20036;-72
2022/09/06 02:54:12;;;;;;;7.45;4.15;;;21.90;99.90;;;;;;2568562;23;20000;-72
2022/09/06 02:55:13;;;;;;;10.23;4.40;;;21.90;99.90;;;;;;2568845;23;20047;-72
2022/09/06 02:56:13;;;;;;;10.38;4.88;;;21.90;99.90;;;;;;2568493;23;20000;-72
2022/09/06 02:57:14;;;;;;;7.05;4.38;;;21.90;99.90;;;;;;2568734;23;20011;-72
2022/09/06 02:58:15;;;;;;;8.32;4.05;;;21.90;99.90;;;;;;2568487;23;20004;-72
2022/09/06 02:59:15;;;;;;;6.43;3.90;;;21.90;99.90;;;;;;2568719;23;20440;-72
2022/09/06 03:00:16;;;;;;;7.93;4.30;;;21.90;99.90;;;;;;2568737;23;20008;-72
2022/09/06 03:01:17;;;;;;;6.60;3.97;;;21.80;99.90;;;;;;2568116;23;20040;-72
2022/09/06 03:02:17;;;;;;;6.88;3.80;;;21.80;99.90;;;;;;2568680;23;20024;-72
2022/09/06 03:03:20;;;;;;;7.18;4.03;;;21.80;99.90;;;;;;2568042;23;20048;-72
2022/09/06 03:04:20;;;;;;;5.78;3.70;;;21.80;99.90;;;;;;2568663;23;20038;-72
2022/09/06 03:05:22;;;;;;;6.30;4.40;;;21.80;99.90;;;;;;2568616;23;20011;-72
2022/09/06 03:06:23;;;;;;;5.40;3.80;;;21.80;99.90;;;;;;2568540;23;20421;-72
2022/09/06 03:07:23;;;;;;;6.20;4.43;;;21.80;99.90;;;;;;2569018;23;20337;-72
2022/09/06 03:08:24;;;;;;;6.93;4.10;;;21.80;99.90;;;;;;2568327;23;20001;-72
2022/09/06 03:09:25;;;;;;;5.22;4.00;;;21.70;99.90;;;;;;2555440;23;20031;-72
2022/09/06 03:10:26;;;;;;;12.40;4.50;;;21.70;99.90;;;;;;2556008;23;20000;-72
2022/09/06 03:11:27;;;;;;;6.90;4.00;;;21.80;99.90;;;;;;2568350;23;20007;-72
2022/09/06 03:12:27;;;;;;;8.35;3.85;;;21.70;99.90;;;;;;2568746;23;20318;-72
2022/09/06 03:13:28;;;;;;;8.68;4.75;;;21.70;99.90;;;;;;2567876;23;20031;-71
2022/09/06 03:14:29;;;;;;;5.70;4.50;;;21.70;99.90;;;;;;2555067;23;20032;-72
2022/09/06 03:15:29;;;;;;;7.38;4.50;;;21.70;99.90;;;;;;2555261;23;20418;-72
2022/09/06 03:16:30;;;;;;;10.60;4.70;;;21.70;99.90;;;;;;2567575;23;20107;-72
2022/09/06 03:17:30;;;;;;;5.00;4.32;;;21.70;99.90;;;;;;2568763;23;20009;-72
2022/09/06 03:18:31;;;;;;;6.57;4.55;;;21.60;99.90;;;;;;2569111;23;20005;-72
2022/09/06 03:19:32;;;;;;;8.38;4.20;;;21.60;99.90;;;;;;2568798;23;19992;-72
2022/09/06 03:20:33;;;;;;;6.13;4.38;;;21.60;99.90;;;;;;2568822;23;20084;-72
2022/09/06 03:21:33;;;;;;;7.00;4.55;;;21.60;99.90;;;;;;2555524;23;20346;-72
2022/09/06 03:22:35;;;;;;;6.25;3.85;;;21.60;99.90;;;;;;2555534;23;20365;-72
2022/09/06 03:23:38;;;;;;;7.88;4.50;;;21.60;99.90;;;;;;2568516;23;20008;-72
2022/09/06 03:24:39;;;;;;;7.30;4.50;;;21.50;99.90;;;;;;2568256;23;20435;-72
2022/09/06 03:25:40;;;;;;;4.57;4.13;;;21.50;99.90;;;;;;2568620;23;20329;-72
2022/09/06 03:26:41;;;;;;;9.07;4.53;;;21.50;99.90;;;;;;2568796;23;20447;-72
2022/09/06 03:27:43;;;;;;;8.60;4.28;;;21.60;99.90;;;;;;2568961;23;20321;-72
2022/09/06 03:28:43;;;;;;;5.53;3.97;;;21.50;99.90;;;;;;2568163;23;20083;-72
2022/09/06 03:29:44;;;;;;;9.50;4.53;;;21.50;99.90;;;;;;2569376;23;19992;-72
2022/09/06 03:30:46;;;;;;;6.40;4.68;;;21.50;99.90;;;;;;2568827;23;19999;-72
2022/09/06 03:31:46;;;;;;;7.43;4.85;;;21.50;99.90;;;;;;2568547;23;20431;-72
2022/09/06 03:32:47;;;;;;;5.55;3.88;;;21.50;99.90;;;;;;2568407;23;20314;-72
2022/09/06 03:33:48;;;;;;;5.88;3.65;;;21.50;99.90;;;;;;2554849;23;20092;-72
2022/09/06 03:34:48;;;;;;;8.57;4.15;;;21.50;99.90;;;;;;2555303;23;20008;-72
2022/09/06 03:35:53;;;;;;;6.03;4.35;;;21.50;99.90;;;;;;2555366;23;20005;-72
2022/09/06 03:36:54;;;;;;;5.47;4.28;;;21.50;99.90;;;;;;2556162;23;20005;-72
2022/09/06 03:37:54;;;;;;;7.15;4.57;;;21.50;99.90;;;;;;2568658;23;20127;-72
2022/09/06 03:38:55;;;;;;;6.60;4.72;;;21.40;99.90;;;;;;2568530;23;20013;-72
2022/09/06 03:39:56;;;;;;;4.93;4.18;;;21.40;99.90;;;;;;2555543;23;20013;-72
2022/09/06 03:40:56;;;;;;;7.78;4.10;;;21.40;99.90;;;;;;2555716;23;20008;-72
2022/09/06 03:41:57;;;;;;;5.80;4.18;;;21.40;99.90;;;;;;2568857;23;20005;-72
2022/09/06 03:42:57;;;;;;;5.47;4.43;;;21.40;99.90;;;;;;2567607;23;20062;-72
2022/09/06 03:43:58;;;;;;;7.50;4.40;;;21.50;99.90;;;;;;2568303;23;20012;-72
2022/09/06 03:44:58;;;;;;;8.00;4.03;;;21.40;99.90;;;;;;2568293;23;20008;-72
2022/09/06 03:45:59;;;;;;;5.07;3.65;;;21.40;99.90;;;;;;2568686;23;20003;-72
2022/09/06 03:47:00;;;;;;;4.43;3.70;;;21.40;99.90;;;;;;2568577;23;20507;-72
2022/09/06 03:48:00;;;;;;;7.20;4.38;;;21.40;99.90;;;;;;2568743;23;20007;-72
2022/09/06 03:49:01;;;;;;;8.05;4.13;;;21.40;99.90;;;;;;2554969;23;20373;-72
2022/09/06 03:50:02;;;;;;;7.38;4.38;;;21.40;99.90;;;;;;2543064;23;20316;-72
2022/09/06 03:51:02;;;;;;;6.55;4.68;;;21.40;99.90;;;;;;2543034;23;20025;-72
2022/09/06 03:52:03;;;;;;;5.85;4.53;;;21.40;99.90;;;;;;2555634;23;20001;-72
2022/09/06 03:53:04;;;;;;;5.72;3.88;;;21.40;99.90;;;;;;2568098;23;20517;-72
2022/09/06 03:54:04;;;;;;;8.27;4.35;;;21.40;99.90;;;;;;2568246;23;20097;-72
2022/09/06 03:55:05;;;;;;;6.82;4.75;;;21.30;99.90;;;;;;2568367;23;20009;-72
2022/09/06 03:56:06;;;;;;;5.80;4.50;;;21.40;99.90;;;;;;2568837;23;20004;-72
2022/09/06 03:57:06;;;;;;;9.73;4.80;;;21.30;99.90;;;;;;2568781;23;20046;-72
2022/09/06 03:58:07;;;;;;;5.65;4.18;;;21.30;99.90;;;;;;2568414;23;20023;-72
2022/09/06 03:59:08;;;;;;;5.85;4.15;;;21.40;99.90;;;;;;2568391;23;20007;-72
2022/09/06 04:00:09;;;;;;;7.38;4.20;;;21.40;99.90;;;;;;2568775;23;20375;-72
2022/09/06 04:01:11;;;;;;;8.05;4.47;;;21.30;99.90;;;;;;2568838;23;20099;-72
2022/09/06 04:02:11;;;;;;;8.80;4.70;;;21.30;99.90;;;;;;2568821;23;20337;-72
2022/09/06 04:03:12;;;;;;;7.70;4.38;;;21.30;99.90;;;;;;2567662;23;20031;-72
2022/09/06 04:04:13;;;;;;;10.00;5.15;;;21.30;99.90;;;;;;2568501;23;20009;-72
2022/09/06 04:05:15;;;;;;;7.63;4.55;;;21.30;99.90;;;;;;2568491;23;20201;-72
2022/09/06 04:06:15;;;;;;;5.85;4.13;;;21.30;99.90;;;;;;2568281;23;20011;-71
2022/09/06 04:07:16;;;;;;;6.75;4.50;;;21.30;99.90;;;;;;2568602;23;20001;-72
2022/09/06 04:08:16;;;;;;;7.57;4.90;;;21.30;99.90;;;;;;2568897;23;20015;-72
2022/09/06 04:09:17;;;;;;;6.88;4.43;;;21.30;99.90;;;;;;2568628;23;20000;-72
2022/09/06 04:10:18;;;;;;;5.45;4.30;;;21.30;99.90;;;;;;2555246;23;20337;-72
2022/09/06 04:11:18;;;;;;;8.50;4.65;;;21.30;99.90;;;;;;2555283;23;20020;-72
2022/09/06 04:12:19;;;;;;;11.23;5.20;;;21.30;99.90;;;;;;2568512;23;20001;-72
2022/09/06 04:13:21;;;;;;;13.10;5.55;;;21.30;99.90;;;;;;2568013;23;20008;-72
2022/09/06 04:14:22;;;;;;;5.95;5.28;;;21.30;99.90;;;;;;2554926;23;20005;-72
2022/09/06 04:15:23;;;;;;;10.30;5.30;;;21.30;99.90;;;;;;2554890;23;20012;-72
2022/09/06 04:16:23;;;;;;;7.85;5.10;;;21.30;99.90;;;;;;2554832;23;20005;-72
2022/09/06 04:17:24;;;;;;;8.63;5.43;;;21.30;99.90;;;;;;2554938;23;20005;-72
2022/09/06 04:18:25;;;;;;;7.90;5.18;;;21.20;99.90;;;;;;2568352;23;20008;-72
2022/09/06 04:19:25;;;;;;;10.68;5.38;;;21.20;99.90;;;;;;2568360;23;20103;-72
2022/09/06 04:20:26;;;;;;;8.75;5.53;;;21.20;99.90;;;;;;2555025;23;20011;-72
2022/09/06 04:21:27;;;;;;;12.75;5.55;;;21.10;99.90;;;;;;2555882;23;20005;-72
2022/09/06 04:22:27;;;;;;;5.97;4.40;;;21.10;99.90;;;;;;2568715;23;20000;-72
2022/09/06 04:23:28;;;;;;;7.10;5.47;;;21.10;99.90;;;;;;2568442;23;20445;-72
2022/09/06 04:24:29;;;;;;;9.65;5.50;;;21.10;99.90;;;;;;2568975;23;20051;-71
2022/09/06 04:25:29;;;;;;;5.82;5.03;;;21.10;99.90;;;;;;2568346;23;20008;-72
2022/09/06 04:26:30;;;;;;;10.40;5.95;;;21.10;99.90;;;;;;2568656;23;20504;-72
2022/09/06 04:27:30;;;;;;;11.13;5.85;;;21.10;99.90;;;;;;2568505;23;20009;-71
2022/09/06 04:28:31;;;;;;;8.73;4.72;;;21.10;99.90;;;;;;2568483;23;20079;-72
2022/09/06 04:29:31;;;;;;;8.18;4.93;;;21.10;99.90;;;;;;2568191;23;20001;-72
2022/09/06 04:30:32;;;;;;;10.40;5.63;;;21.10;99.90;;;;;;2555499;23;20313;-71
2022/09/06 04:31:33;;;;;;;8.40;5.75;;;21.10;99.90;;;;;;2555204;23;20485;-71
2022/09/06 04:32:33;;;;;;;6.60;5.07;;;21.10;99.90;;;;;;2568805;23;20100;-72
2022/09/06 04:33:36;;;;;;;9.43;5.53;;;21.10;99.90;;;;;;2567597;23;20448;-72
2022/09/06 04:34:39;;;;;;;9.32;5.03;;;21.10;99.90;;;;;;2555358;23;20063;-72
2022/09/06 04:35:40;;;;;;;8.70;5.57;;;21.10;99.90;;;;;;2555747;23;20099;-72
2022/09/06 04:36:40;;;;;;;6.43;5.15;;;21.10;99.90;;;;;;2568306;23;20001;-72
2022/09/06 04:37:41;;;;;;;8.13;5.60;;;21.00;99.90;;;;;;2568464;23;20047;-72
2022/09/06 04:38:43;;;;;;;7.65;4.85;;;21.10;99.90;;;;;;2568604;23;20311;-72
2022/09/06 04:39:47;;;;;;;7.90;5.15;;;21.10;99.90;;;;;;2568408;23;20031;-72
2022/09/06 04:40:47;;;;;;;11.73;5.63;;;21.00;99.90;;;;;;2555130;23;20005;-72
2022/09/06 04:41:48;;;;;;;7.05;4.35;;;21.00;99.90;;;;;;2554861;23;20005;-72
2022/09/06 04:42:48;;;;;;;7.22;4.72;;;21.00;99.90;;;;;;2568409;23;20324;-72
2022/09/06 04:43:49;;;;;;;9.73;4.55;;;21.00;99.90;;;;;;2568284;23;20015;-72
2022/09/06 04:44:50;;;;;;;11.23;4.68;;;20.90;99.90;;;;;;2568350;23;20333;-72
2022/09/06 04:45:50;;;;;;;4.63;4.22;;;20.90;99.90;;;;;;2568560;23;20481;-72
2022/09/06 04:47:03;;;;;;;6.45;4.50;;;20.90;99.90;;;;;;2567976;23;20067;-72
2022/09/06 04:48:03;;;;;;;10.35;4.50;;;20.90;99.90;;;;;;2568252;23;20039;-72
2022/09/06 04:49:04;;;;;;;7.18;4.07;;;20.90;99.90;;;;;;2568607;23;20008;-72
2022/09/06 04:50:05;;;;;;;8.18;4.90;;;20.90;99.90;;;;;;2568162;23;20013;-72
2022/09/06 04:51:05;;;;;;;5.63;4.03;;;20.80;99.90;;;;;;2567704;23;20008;-72
2022/09/06 04:52:06;;;;;;;10.07;5.20;;;20.90;99.90;;;;;;2567689;23;20417;-72
2022/09/06 04:53:07;;;;;;;4.95;4.38;;;20.90;99.90;;;;;;2567871;23;20083;-72
2022/09/06 04:54:08;;;;;;;6.25;4.80;;;20.90;99.90;;;;;;2568370;23;20032;-72
2022/09/06 04:55:08;;;;;;;7.13;4.63;;;20.90;99.90;;;;;;2567963;23;20380;-72
2022/09/06 04:56:27;;;;;;;6.18;4.10;;;20.90;99.90;;;;;;2567875;23;20004;-72
2022/09/06 04:57:27;;;;;;;9.25;4.15;;;20.90;99.90;;;;;;2568238;23;20005;-72
2022/09/06 04:58:28;;;;;;;9.60;4.85;;;20.90;99.90;;;;;;2568370;23;20088;-72
2022/09/06 04:59:29;;;;;;;6.45;4.43;;;20.90;99.90;;;;;;2567809;23;20091;-72
2022/09/06 05:00:31;;;;;;;9.98;4.00;;;20.90;99.90;;;;;;2568512;23;20083;-72
2022/09/06 05:01:32;;;;;;;6.28;3.88;;;20.90;99.90;;;;;;2568012;23;20054;-73
2022/09/06 05:02:32;;;;;;;7.40;4.32;;;20.90;99.90;;;;;;2567230;23;20017;-73
2022/09/06 05:03:33;;;;;;;7.25;4.38;;;20.90;99.90;;;;;;2567210;23;20015;-71
2022/09/06 05:04:33;;;;;;;6.97;4.07;;;20.90;99.90;;;;;;2568551;23;20003;-71
2022/09/06 05:05:34;;;;;;;5.57;3.95;;;20.90;99.90;;;;;;2568120;23;20368;-71
2022/09/06 05:06:35;;;;;;;6.47;4.40;;;20.90;99.90;;;;;;2568113;23;20001;-71
2022/09/06 05:07:36;;;;;;;5.38;4.18;;;20.90;99.90;;;;;;2568539;23;20008;-71
2022/09/06 05:08:38;;;;;;;5.60;3.92;;;20.90;99.90;;;;;;2568531;23;20333;-71
2022/09/06 05:09:38;;;;;;;5.07;3.53;;;20.90;99.90;;;;;;2568294;23;20314;-71
2022/09/06 05:10:39;;;;;;;5.10;3.55;;;20.90;99.90;;;;;;2567861;23;20036;-71
2022/09/06 05:11:39;;;;;;;8.13;4.20;;;20.90;99.90;;;;;;2568255;23;20000;-71
2022/09/06 05:12:40;;;;;;;7.60;3.90;;;20.90;99.90;;;;;;2568196;23;20057;-71
2022/09/06 05:13:41;;;;;;;7.68;4.45;;;20.90;99.90;;;;;;2568254;23;20005;-71
2022/09/06 05:14:41;;;;;;;8.32;3.97;;;20.90;99.90;;;;;;2567957;23;20001;-71
2022/09/06 05:15:42;;;;;;;6.18;3.88;;;20.90;99.90;;;;;;2567923;23;20009;-72
2022/09/06 05:16:44;;;;;;;8.02;3.97;;;20.90;99.90;;;;;;2553672;23;20093;-71
2022/09/06 05:17:44;;;;;;;5.55;3.65;;;20.90;99.90;;;;;;2554977;23;20088;-71
2022/09/06 05:18:45;;;;;;;9.30;4.00;;;20.90;99.90;;;;;;2567235;23;20005;-72
2022/09/06 05:19:46;;;;;;;10.20;4.13;;;20.90;99.90;;;;;;2554840;23;20024;-71
2022/09/06 05:20:51;;;;;;;12.90;3.80;;;21.00;99.90;;;;;;2555257;23;20004;-71
2022/09/06 05:21:52;;;;;;;7.25;3.88;;;21.00;99.90;;;;;;2568683;23;20219;-71
2022/09/06 05:22:55;;;;;;;6.15;3.80;;;21.00;99.90;;;;;;2568322;23;20031;-71
2022/09/06 05:23:55;;;;;;;9.20;3.60;;;21.00;99.90;;;;;;2566717;23;20009;-71
2022/09/06 05:24:56;;;;;;;7.43;3.45;;;21.00;99.90;;;;;;2567629;23;20001;-71
2022/09/06 05:25:56;;;;;;;7.15;3.38;;;21.00;99.90;;;;;;2568138;23;20080;-71
2022/09/06 05:26:57;;;;;;;5.97;3.50;;;21.00;99.90;;;;;;2567691;23;20008;-71
2022/09/06 05:27:58;;;;;;;7.10;4.20;;;21.00;99.90;;;;;;2568242;23;20070;-71
2022/09/06 05:28:58;;;;;;;6.85;4.05;;;21.00;99.90;;;;;;2554747;23;20084;-72
2022/09/06 05:29:59;;;;;;;6.43;3.53;;;21.00;99.90;;;;;;2554718;23;20001;-72
2022/09/06 05:31:07;;;;;;;6.97;3.72;;;21.00;99.90;;;;;;2568048;23;20361;-71
2022/09/06 05:32:07;;;;;;;6.15;3.40;;;21.00;99.90;;;;;;2567811;23;19997;-71